Time;durP1;ratioP1;P1;durP2;ratioP2;P2;SDS_P1;SDS_P2;PMS_P1;PMS_P2;Temp;Humidity;BMP_temperature;BMP_pressure;BME280_temperature;BME280_humidity;BME280_pressure;Samples;Min_cycle;Max_cycle;Signal;HPM_P1;HPM_P2
2022/04/28 00:01:02;;;;;;;11.17;7.63;;;8.90;99.90;;;;;;5105278;28;20418;-33
2022/04/28 00:03:28;;;;;;;8.50;6.97;;;8.70;99.90;;;;;;5109166;28;20428;-33
2022/04/28 00:05:54;;;;;;;11.23;7.13;;;8.70;99.90;;;;;;5107489;28;20425;-33
2022/04/28 00:08:20;;;;;;;10.10;7.40;;;8.70;99.90;;;;;;5098075;28;20184;-33
2022/04/28 00:10:46;;;;;;;12.30;7.60;;;8.50;99.90;;;;;;5087750;28;20214;-33
2022/04/28 00:13:13;;;;;;;8.37;6.63;;;8.60;99.90;;;;;;5092624;28;20981;-33
2022/04/28 00:15:39;;;;;;;16.83;7.43;;;8.80;99.90;;;;;;5103481;28;20244;-33
2022/04/28 00:18:05;;;;;;;8.80;7.23;;;8.70;99.90;;;;;;5097595;28;20845;-33
2022/04/28 00:20:31;;;;;;;17.40;8.60;;;8.90;99.90;;;;;;5110152;28;20469;-33
2022/04/28 00:22:57;;;;;;;10.77;8.10;;;9.10;99.90;;;;;;5091553;28;20466;-33
2022/04/28 00:25:23;;;;;;;9.87;7.67;;;9.10;99.90;;;;;;5091807;28;20176;-33
2022/04/28 00:27:50;;;;;;;9.27;7.50;;;9.30;99.90;;;;;;5100633;28;20183;-33
2022/04/28 00:30:16;;;;;;;11.57;7.07;;;9.10;99.90;;;;;;5110559;28;20689;-33
2022/04/28 00:32:41;;;;;;;14.17;7.33;;;9.20;99.90;;;;;;5104340;28;20457;-33
2022/04/28 00:35:08;;;;;;;10.90;8.07;;;9.20;99.90;;;;;;5112571;28;20430;-33
2022/04/28 00:37:34;;;;;;;11.93;7.70;;;9.00;99.90;;;;;;5108841;28;20184;-33
2022/04/28 00:40:01;;;;;;;7.60;6.47;;;9.20;99.90;;;;;;5092897;28;20469;-33
2022/04/28 00:42:27;;;;;;;10.73;7.33;;;9.10;99.90;;;;;;5092178;28;20422;-33
2022/04/28 00:44:53;;;;;;;13.13;8.57;;;9.20;99.90;;;;;;5107647;28;20422;-33
2022/04/28 00:47:19;;;;;;;12.37;7.40;;;9.20;99.90;;;;;;5108173;28;20452;-33
2022/04/28 00:52:32;;;;;;;11.10;8.30;;;9.10;99.90;;;;;;5108935;28;20441;-33
2022/04/28 00:54:58;;;;;;;9.13;7.70;;;9.20;99.90;;;;;;5091402;28;20536;-33
2022/04/28 00:57:25;;;;;;;12.43;8.60;;;9.10;99.90;;;;;;5091329;28;20527;-33
2022/04/28 00:59:51;;;;;;;10.00;7.80;;;8.90;99.90;;;;;;5109072;28;20559;-33
2022/04/28 01:02:18;;;;;;;9.30;8.13;;;8.90;99.90;;;;;;5111574;28;20425;-33
2022/04/28 01:04:45;;;;;;;10.83;8.30;;;9.10;99.90;;;;;;5110158;28;20426;-33
2022/04/28 01:07:11;;;;;;;10.87;8.13;;;9.00;99.90;;;;;;5111451;28;20472;-33
2022/04/28 01:09:37;;;;;;;9.67;7.77;;;9.00;99.90;;;;;;5091170;28;20443;-33
2022/04/28 01:12:14;;;;;;;9.50;8.13;;;8.90;99.90;;;;;;5090978;28;20513;-33
2022/04/28 01:14:41;;;;;;;10.77;7.90;;;9.00;99.90;;;;;;5102835;28;20416;-33
2022/04/28 01:17:08;;;;;;;14.80;8.57;;;8.90;99.90;;;;;;5102028;28;20438;-33
2022/04/28 01:19:33;;;;;;;12.80;8.10;;;9.00;99.90;;;;;;5110430;28;20457;-34
2022/04/28 01:21:59;;;;;;;10.27;8.20;;;8.90;99.90;;;;;;5095856;28;20761;-33
2022/04/28 01:24:25;;;;;;;10.47;7.50;;;8.70;99.90;;;;;;5090224;28;20196;-34
2022/04/28 01:26:53;;;;;;;10.97;8.10;;;8.40;99.90;;;;;;5090845;28;20672;-33
2022/04/28 01:29:18;;;;;;;12.57;8.63;;;8.40;99.90;;;;;;5090967;28;20218;-33
2022/04/28 01:31:44;;;;;;;14.27;8.20;;;8.40;99.90;;;;;;5100022;28;20422;-33
2022/04/28 01:34:10;;;;;;;14.00;9.97;;;8.40;99.90;;;;;;5110988;28;20187;-33
2022/04/28 01:36:35;;;;;;;10.40;8.63;;;8.20;99.90;;;;;;5109826;28;20264;-36
2022/04/28 01:39:04;;;;;;;11.10;8.80;;;8.30;99.90;;;;;;5098341;28;20220;-33
2022/04/28 01:41:30;;;;;;;11.40;8.30;;;8.30;99.90;;;;;;5089819;28;20179;-33
2022/04/28 01:43:56;;;;;;;10.47;8.37;;;8.20;99.90;;;;;;5098176;28;20509;-33
2022/04/28 01:46:22;;;;;;;10.67;9.30;;;8.60;99.90;;;;;;5110180;28;20421;-33
2022/04/28 01:48:48;;;;;;;11.70;8.67;;;8.40;99.90;;;;;;5110787;28;20927;-33
2022/04/28 01:56:42;;;;;;;12.90;9.40;;;8.40;99.90;;;;;;5089155;28;20532;-35
2022/04/28 01:59:07;;;;;;;13.77;9.03;;;8.30;99.90;;;;;;5102841;28;20544;-33
2022/04/28 02:01:33;;;;;;;11.27;8.90;;;8.20;99.90;;;;;;5106707;28;20249;-33
2022/04/28 02:03:59;;;;;;;12.00;8.93;;;8.20;99.90;;;;;;5102890;28;20188;-33
2022/04/28 02:06:25;;;;;;;13.43;10.07;;;8.10;99.90;;;;;;5107740;28;20576;-33
2022/04/28 02:08:51;;;;;;;11.50;9.13;;;8.10;99.90;;;;;;5101521;28;20192;-33
2022/04/28 02:11:17;;;;;;;11.07;8.80;;;8.10;99.90;;;;;;5089288;28;20488;-33
2022/04/28 02:13:42;;;;;;;10.87;8.80;;;8.00;99.90;;;;;;5095330;28;20184;-33
2022/04/28 02:16:09;;;;;;;11.60;9.03;;;8.00;99.90;;;;;;5108804;28;20263;-33
2022/04/28 02:18:34;;;;;;;14.00;9.30;;;8.20;99.90;;;;;;5103771;28;20247;-33
2022/04/28 02:21:00;;;;;;;14.50;9.10;;;7.90;99.90;;;;;;5103897;28;20418;-33
2022/04/28 02:23:26;;;;;;;14.40;10.03;;;8.10;99.90;;;;;;5089125;28;20190;-33
2022/04/28 02:25:52;;;;;;;12.80;9.70;;;8.00;99.90;;;;;;5089668;28;20188;-33
2022/04/28 02:28:18;;;;;;;15.60;9.20;;;7.90;99.90;;;;;;5089439;28;20241;-33
2022/04/28 02:30:44;;;;;;;13.50;9.37;;;8.10;99.90;;;;;;5109079;28;20429;-33
2022/04/28 02:33:09;;;;;;;15.97;10.60;;;7.90;99.90;;;;;;5107605;28;20186;-33
2022/04/28 02:35:39;;;;;;;11.50;9.23;;;7.80;99.90;;;;;;5110115;28;20311;-33
2022/04/28 02:38:04;;;;;;;12.13;9.47;;;7.90;99.90;;;;;;5109030;28;20601;-33
2022/04/28 02:40:31;;;;;;;10.73;8.90;;;8.10;99.90;;;;;;5087601;28;20470;-33
2022/04/28 02:42:56;;;;;;;14.07;9.17;;;7.90;99.90;;;;;;5089120;28;20414;-33
2022/04/28 02:45:22;;;;;;;14.40;10.30;;;7.90;99.90;;;;;;5109783;28;20830;-33
2022/04/28 02:47:47;;;;;;;13.07;9.70;;;7.80;99.90;;;;;;5098661;28;20196;-33
2022/04/28 02:50:13;;;;;;;12.63;9.30;;;7.90;99.90;;;;;;5108893;28;20247;-33
2022/04/28 02:52:39;;;;;;;10.87;9.43;;;8.00;99.90;;;;;;5109746;28;20218;-33
2022/04/28 02:55:07;;;;;;;17.17;10.53;;;7.80;99.90;;;;;;5092615;28;20203;-33
2022/04/28 02:57:32;;;;;;;14.57;9.97;;;7.80;99.90;;;;;;5090005;28;20513;-33
2022/04/28 03:00:01;;;;;;;13.37;9.60;;;7.80;99.90;;;;;;5055246;28;20498;-33
2022/04/28 03:02:27;;;;;;;17.23;9.40;;;7.70;99.90;;;;;;5069009;28;20431;-33
2022/04/28 03:04:52;;;;;;;15.63;9.63;;;8.10;99.90;;;;;;5067592;28;20488;-33
2022/04/28 03:12:47;;;;;;;13.37;9.53;;;7.50;99.90;;;;;;5068828;28;20423;-33
2022/04/28 03:15:13;;;;;;;12.77;10.00;;;7.50;99.90;;;;;;5080527;28;21066;-33
2022/04/28 03:17:38;;;;;;;12.53;9.13;;;7.50;99.90;;;;;;5086718;28;20188;-33
2022/04/28 03:20:05;;;;;;;11.37;9.90;;;7.70;99.90;;;;;;5088339;28;20216;-33
2022/04/28 03:22:31;;;;;;;13.40;9.23;;;7.50;99.90;;;;;;5070363;28;20339;-33
2022/04/28 03:24:56;;;;;;;14.27;10.13;;;7.40;99.90;;;;;;5057483;28;20534;-33
2022/04/28 03:27:22;;;;;;;12.40;10.37;;;7.40;99.90;;;;;;5067783;28;20191;-33
2022/04/28 03:29:48;;;;;;;18.47;10.27;;;7.40;99.90;;;;;;5068349;28;20212;-33
2022/04/28 03:32:14;;;;;;;15.10;11.27;;;7.40;99.90;;;;;;5068578;28;20488;-33
2022/04/28 03:34:40;;;;;;;16.20;10.83;;;7.60;99.90;;;;;;5068872;28;20423;-33
2022/04/28 03:37:05;;;;;;;16.90;11.00;;;7.50;99.90;;;;;;5068446;28;20184;-33
2022/04/28 03:39:31;;;;;;;14.17;10.60;;;7.40;99.90;;;;;;5063310;28;20227;-35
2022/04/28 03:41:57;;;;;;;16.53;9.70;;;7.40;99.90;;;;;;5065925;28;20560;-33
2022/04/28 03:44:23;;;;;;;13.87;10.53;;;7.40;99.90;;;;;;5068712;28;20181;-33
2022/04/28 03:46:49;;;;;;;15.53;10.33;;;7.40;99.90;;;;;;5068551;28;20427;-33
2022/04/28 03:49:15;;;;;;;14.43;10.80;;;7.40;99.90;;;;;;5068880;28;20280;-33
2022/04/28 03:51:40;;;;;;;15.13;10.50;;;7.30;99.90;;;;;;5068487;28;20658;-33
2022/04/28 03:54:06;;;;;;;13.37;9.97;;;7.70;99.90;;;;;;5066132;28;20632;-33
2022/04/28 03:56:33;;;;;;;14.30;11.63;;;7.30;99.90;;;;;;5066204;28;20205;-33
2022/04/28 03:59:00;;;;;;;14.23;9.63;;;7.40;99.90;;;;;;5072500;28;20212;-33
2022/04/28 04:01:25;;;;;;;12.97;10.00;;;7.50;99.90;;;;;;5087266;28;20424;-33
2022/04/28 04:03:51;;;;;;;14.80;10.60;;;7.40;99.90;;;;;;5072168;28;20485;-33
2022/04/28 04:06:17;;;;;;;21.10;11.03;;;7.60;99.90;;;;;;5070617;28;20279;-33
2022/04/28 04:08:43;;;;;;;17.67;10.77;;;7.60;99.90;;;;;;5072101;28;20839;-33
2022/04/28 04:11:09;;;;;;;15.00;10.30;;;7.60;99.90;;;;;;5062427;28;20449;-33
2022/04/28 04:13:35;;;;;;;19.03;11.30;;;7.50;99.90;;;;;;5072112;28;20231;-33
2022/04/28 04:16:00;;;;;;;14.07;10.70;;;7.40;99.90;;;;;;5090001;28;20204;-33
2022/04/28 04:18:26;;;;;;;20.07;11.40;;;7.50;99.90;;;;;;5082118;28;20193;-33
2022/04/28 04:20:52;;;;;;;15.53;10.43;;;7.50;99.90;;;;;;5084142;28;20188;-35
2022/04/28 04:23:17;;;;;;;17.07;10.70;;;7.50;99.90;;;;;;5071994;28;20196;-33
2022/04/28 04:25:43;;;;;;;13.47;9.70;;;7.50;99.90;;;;;;5062465;28;20666;-33
2022/04/28 04:28:09;;;;;;;14.20;9.33;;;7.50;99.90;;;;;;5071815;28;20291;-33
2022/04/28 04:33:20;;;;;;;14.93;10.40;;;7.60;99.90;;;;;;5071437;28;20577;-36
2022/04/28 04:35:46;;;;;;;15.03;10.37;;;7.60;99.90;;;;;;5071907;28;20458;-33
2022/04/28 04:38:12;;;;;;;15.03;10.57;;;7.60;99.90;;;;;;5071695;28;20587;-33
2022/04/28 04:40:38;;;;;;;19.83;10.57;;;7.60;99.90;;;;;;5061475;28;20486;-33
2022/04/28 04:43:05;;;;;;;15.60;11.50;;;7.60;99.90;;;;;;5064503;28;20251;-33
2022/04/28 04:45:31;;;;;;;18.30;12.50;;;7.70;99.90;;;;;;5067540;28;20264;-33
2022/04/28 04:47:57;;;;;;;15.17;10.30;;;7.70;99.90;;;;;;5065368;28;21021;-33
2022/04/28 04:50:22;;;;;;;16.90;11.37;;;7.60;99.90;;;;;;5070894;28;20200;-33
2022/04/28 04:52:48;;;;;;;14.40;10.27;;;7.80;99.90;;;;;;5071319;28;20216;-35
2022/04/28 04:55:14;;;;;;;15.47;11.93;;;7.80;99.90;;;;;;5062378;28;20248;-33
2022/04/28 04:57:40;;;;;;;16.50;11.33;;;7.60;99.90;;;;;;5064982;28;20213;-33
2022/04/28 05:00:06;;;;;;;14.60;10.40;;;7.80;99.90;;;;;;5073831;28;20587;-33
2022/04/28 05:02:32;;;;;;;14.60;10.87;;;7.70;99.90;;;;;;5070901;28;20423;-33
2022/04/28 05:04:58;;;;;;;19.13;10.93;;;7.60;99.90;;;;;;5067387;28;20427;-33
2022/04/28 05:07:30;;;;;;;18.17;12.33;;;7.70;99.90;;;;;;5051677;28;20177;-33
2022/04/28 05:09:55;;;;;;;19.13;11.00;;;7.60;99.90;;;;;;5063217;28;20721;-33
2022/04/28 05:12:21;;;;;;;25.70;11.67;;;7.80;99.90;;;;;;5066065;28;20420;-33
2022/04/28 05:14:47;;;;;;;16.97;10.90;;;7.70;99.90;;;;;;5078905;28;20219;-33
2022/04/28 05:17:13;;;;;;;16.17;11.23;;;7.70;99.90;;;;;;5091070;28;20192;-33
2022/04/28 05:19:38;;;;;;;21.63;11.90;;;7.70;99.90;;;;;;5081646;28;20224;-33
2022/04/28 05:22:04;;;;;;;17.90;12.07;;;8.00;99.90;;;;;;5076316;28;20234;-33
2022/04/28 05:24:30;;;;;;;17.00;12.50;;;8.10;99.90;;;;;;5069096;28;20851;-33
2022/04/28 05:26:55;;;;;;;19.17;11.40;;;8.00;99.90;;;;;;5065127;28;20193;-33
2022/04/28 05:29:21;;;;;;;18.10;12.03;;;8.00;99.90;;;;;;5070709;28;20203;-33
2022/04/28 05:31:47;;;;;;;19.87;13.50;;;8.30;99.90;;;;;;5069719;28;20204;-33
2022/04/28 05:34:13;;;;;;;18.83;12.50;;;8.30;99.90;;;;;;5070669;28;20193;-33
2022/04/28 05:36:39;;;;;;;18.80;11.60;;;8.50;99.90;;;;;;5070583;28;20434;-33
2022/04/28 05:39:05;;;;;;;20.03;11.90;;;8.70;99.90;;;;;;5076590;28;20212;-33
2022/04/28 05:41:32;;;;;;;24.90;12.37;;;8.60;99.90;;;;;;5066051;28;20529;-35
2022/04/28 05:46:42;;;;;;;19.50;12.40;;;8.60;99.90;;;;;;5071106;28;20438;-33
2022/04/28 05:49:08;;;;;;;22.10;12.50;;;8.70;99.90;;;;;;5079719;28;20427;-34
2022/04/28 05:51:34;;;;;;;21.30;13.30;;;9.30;99.90;;;;;;5074941;28;20882;-33
2022/04/28 05:54:00;;;;;;;19.80;12.43;;;9.10;99.90;;;;;;5079023;28;20438;-35
2022/04/28 05:56:26;;;;;;;23.03;12.20;;;9.40;99.90;;;;;;5064060;28;20655;-33
2022/04/28 05:58:52;;;;;;;19.00;12.70;;;9.90;99.90;;;;;;5069660;28;20545;-36
2022/04/28 06:01:18;;;;;;;21.37;13.07;;;9.90;99.90;;;;;;5069510;28;20453;-36
2022/04/28 06:03:43;;;;;;;19.93;12.97;;;10.20;99.90;;;;;;5068748;28;20466;-33
2022/04/28 06:06:09;;;;;;;19.10;13.17;;;10.50;99.90;;;;;;5065974;28;20185;-34
2022/04/28 06:08:35;;;;;;;17.33;12.13;;;10.30;99.90;;;;;;5069791;28;20258;-35
2022/04/28 06:11:01;;;;;;;15.60;12.50;;;10.60;99.90;;;;;;5063903;28;20444;-33
2022/04/28 06:13:27;;;;;;;20.03;13.93;;;10.60;99.90;;;;;;5068860;28;21185;-34
2022/04/28 06:15:53;;;;;;;17.63;12.40;;;10.70;99.90;;;;;;5074387;28;20189;-33
2022/04/28 06:18:19;;;;;;;18.03;12.50;;;10.80;99.90;;;;;;5065223;28;20451;-33
2022/04/28 06:20:45;;;;;;;23.10;13.60;;;10.90;99.90;;;;;;5068001;28;20290;-33
2022/04/28 06:23:11;;;;;;;18.20;12.70;;;11.00;99.90;;;;;;5067298;28;20193;-33
2022/04/28 06:25:37;;;;;;;19.77;13.63;;;11.20;99.90;;;;;;5064462;28;20450;-34
2022/04/28 06:28:04;;;;;;;20.80;11.90;;;11.20;99.90;;;;;;5057395;28;20435;-33
2022/04/28 06:30:29;;;;;;;19.30;13.20;;;11.30;99.90;;;;;;5065515;28;20448;-34
2022/04/28 06:32:55;;;;;;;16.40;11.77;;;11.40;99.90;;;;;;5068459;28;20438;-33
2022/04/28 06:35:21;;;;;;;17.33;12.00;;;11.60;99.90;;;;;;5069033;28;20291;-34
2022/04/28 06:37:46;;;;;;;17.40;11.80;;;11.70;99.90;;;;;;5069594;28;20193;-33
2022/04/28 06:40:12;;;;;;;14.87;10.90;;;11.60;99.90;;;;;;5064339;28;20217;-34
2022/04/28 06:42:42;;;;;;;14.00;11.20;;;11.80;99.90;;;;;;5062457;28;20632;-34
2022/04/28 06:45:09;;;;;;;14.07;11.27;;;11.70;99.90;;;;;;5067704;28;20185;-34
2022/04/28 06:47:35;;;;;;;17.57;11.33;;;11.90;99.90;;;;;;5077870;28;20508;-34
2022/04/28 06:50:00;;;;;;;15.77;11.80;;;12.10;99.90;;;;;;5078816;28;20433;-34
2022/04/28 06:52:26;;;;;;;18.20;11.40;;;12.20;99.90;;;;;;5076771;28;20191;-34
2022/04/28 06:54:51;;;;;;;15.53;11.70;;;12.20;99.90;;;;;;5085305;28;20196;-34
2022/04/28 06:57:17;;;;;;;18.90;12.10;;;12.20;99.90;;;;;;5075096;28;20281;-34
2022/04/28 06:59:43;;;;;;;16.50;12.00;;;12.20;99.90;;;;;;5067198;28;20270;-33
2022/04/28 07:02:09;;;;;;;17.80;11.60;;;12.20;99.90;;;;;;5069263;28;20189;-34
2022/04/28 07:04:35;;;;;;;14.97;11.93;;;12.20;99.90;;;;;;5067873;28;20185;-34
2022/04/28 07:07:00;;;;;;;16.27;12.07;;;12.50;99.90;;;;;;5069169;28;20454;-34
2022/04/28 07:09:26;;;;;;;17.63;11.77;;;12.60;99.90;;;;;;5068923;28;20484;-34
2022/04/28 07:11:52;;;;;;;14.83;11.73;;;12.60;99.90;;;;;;5062328;28;20289;-33
2022/04/28 07:14:17;;;;;;;20.30;12.10;;;12.50;99.90;;;;;;5072144;28;20184;-34
2022/04/28 07:16:43;;;;;;;15.30;12.07;;;12.40;99.90;;;;;;5079512;28;20246;-34
2022/04/28 07:19:09;;;;;;;19.03;12.40;;;12.40;99.90;;;;;;5087433;28;20265;-34
2022/04/28 07:21:35;;;;;;;22.50;11.97;;;12.50;99.90;;;;;;5077955;28;20181;-34
2022/04/28 07:24:01;;;;;;;14.30;11.50;;;12.50;99.90;;;;;;5080708;28;20260;-33
2022/04/28 07:26:28;;;;;;;14.60;11.70;;;12.60;99.90;;;;;;5081604;28;20497;-33
2022/04/28 07:28:54;;;;;;;17.57;11.37;;;12.50;99.90;;;;;;5070481;28;20231;-34
2022/04/28 07:31:19;;;;;;;18.50;12.03;;;12.10;99.90;;;;;;5072136;28;20828;-34
2022/04/28 07:33:45;;;;;;;18.00;12.10;;;12.10;99.90;;;;;;5071806;28;20561;-34
2022/04/28 07:36:14;;;;;;;18.20;11.57;;;11.70;99.90;;;;;;5071599;28;20849;-33
2022/04/28 07:38:41;;;;;;;17.17;11.83;;;11.70;99.90;;;;;;5072615;28;20427;-34
2022/04/28 07:41:07;;;;;;;21.73;12.00;;;12.00;99.90;;;;;;5064452;28;20505;-33
2022/04/28 07:43:33;;;;;;;16.90;12.00;;;12.20;99.90;;;;;;5071891;28;20415;-34
2022/04/28 07:45:59;;;;;;;15.40;12.17;;;12.30;99.90;;;;;;5072716;28;20453;-34
2022/04/28 07:48:24;;;;;;;14.90;11.67;;;12.40;99.90;;;;;;5072721;28;20661;-34
2022/04/28 07:50:50;;;;;;;14.90;12.07;;;12.30;99.90;;;;;;5072190;28;20426;-34
2022/04/28 07:53:17;;;;;;;19.77;12.70;;;12.40;99.90;;;;;;5072236;28;20235;-34
2022/04/28 07:55:43;;;;;;;18.77;12.70;;;12.40;99.90;;;;;;5068695;28;20186;-34
2022/04/28 07:58:08;;;;;;;20.80;12.17;;;12.40;99.90;;;;;;5063447;28;21164;-34
2022/04/28 08:00:34;;;;;;;17.60;11.30;;;12.30;99.90;;;;;;5071781;28;20303;-34
2022/04/28 08:03:00;;;;;;;15.13;11.53;;;12.20;99.90;;;;;;5072240;28;20185;-34
2022/04/28 08:05:26;;;;;;;20.50;13.27;;;12.10;99.90;;;;;;5071579;28;20411;-34
2022/04/28 08:07:51;;;;;;;17.37;12.43;;;11.90;99.90;;;;;;5071890;28;20698;-34
2022/04/28 08:10:17;;;;;;;15.43;12.37;;;11.70;99.90;;;;;;5071837;28;20177;-34
2022/04/28 08:12:43;;;;;;;17.23;12.87;;;11.70;99.90;;;;;;5061129;28;20193;-34
2022/04/28 08:15:09;;;;;;;18.97;12.70;;;12.00;99.90;;;;;;5072383;28;20300;-34
2022/04/28 08:17:34;;;;;;;17.57;12.30;;;11.70;99.90;;;;;;5071930;28;20250;-34
2022/04/28 08:20:00;;;;;;;16.20;13.10;;;11.70;99.90;;;;;;5071475;28;20458;-34
2022/04/28 08:22:26;;;;;;;16.30;12.80;;;11.80;99.90;;;;;;5071685;28;20220;-34
2022/04/28 08:24:51;;;;;;;17.13;12.57;;;12.00;99.90;;;;;;5072345;28;20562;-34
2022/04/28 08:27:17;;;;;;;16.10;12.87;;;12.00;99.90;;;;;;5064210;28;20192;-34
2022/04/28 08:29:42;;;;;;;17.50;11.90;;;12.10;99.90;;;;;;5069921;28;20189;-34
2022/04/28 08:32:09;;;;;;;14.83;11.90;;;12.20;99.90;;;;;;5071834;28;20599;-34
2022/04/28 08:34:36;;;;;;;15.60;11.87;;;12.20;99.90;;;;;;5071762;28;20192;-34
2022/04/28 08:37:02;;;;;;;17.30;12.63;;;12.30;99.90;;;;;;5071576;28;20427;-34
2022/04/28 08:39:27;;;;;;;15.83;11.40;;;12.40;99.90;;;;;;5070467;28;20466;-34
2022/04/28 08:41:55;;;;;;;14.83;11.53;;;12.60;99.90;;;;;;5063746;28;20498;-34
2022/04/28 08:44:26;;;;;;;21.43;12.67;;;12.70;99.90;;;;;;5069957;28;20181;-34
2022/04/28 08:46:53;;;;;;;22.70;12.80;;;12.80;99.90;;;;;;5071586;28;20428;-33
2022/04/28 08:49:30;;;;;;;14.33;12.10;;;12.80;99.90;;;;;;5071347;28;20472;-34
2022/04/28 08:51:58;;;;;;;17.83;12.10;;;12.80;99.90;;;;;;5057557;28;20435;-34
2022/04/28 08:54:26;;;;;;;14.27;11.67;;;12.80;99.90;;;;;;5070173;28;20420;-34
2022/04/28 08:56:53;;;;;;;15.57;11.67;;;12.90;99.90;;;;;;5063389;28;20514;-34
2022/04/28 08:59:23;;;;;;;17.50;12.57;;;13.00;99.90;;;;;;5069300;28;20962;-34
2022/04/28 09:01:50;;;;;;;16.97;12.87;;;13.10;99.90;;;;;;5070660;28;20411;-34
2022/04/28 09:04:17;;;;;;;19.37;12.40;;;13.20;99.90;;;;;;5070167;28;20761;-34
2022/04/28 09:06:44;;;;;;;22.57;13.33;;;13.30;99.90;;;;;;5071459;28;20411;-34
2022/04/28 09:09:12;;;;;;;17.33;12.07;;;13.40;99.90;;;;;;5069930;28;20423;-34
2022/04/28 09:11:39;;;;;;;14.63;11.73;;;13.60;99.90;;;;;;5065056;28;20435;-34
2022/04/28 09:14:10;;;;;;;15.13;13.33;;;13.70;99.90;;;;;;5069297;28;21016;-34
2022/04/28 09:17:02;;;;;;;15.73;12.23;;;13.80;99.90;;;;;;5063604;28;20423;-34
2022/04/28 09:19:46;;;;;;;19.10;13.23;;;13.80;99.90;;;;;;5070869;28;20459;-34
2022/04/28 09:22:13;;;;;;;19.00;12.57;;;13.80;99.90;;;;;;5071024;28;20404;-34
2022/04/28 09:24:44;;;;;;;18.00;13.90;;;13.90;99.90;;;;;;5070930;28;20473;-34
2022/04/28 09:27:11;;;;;;;21.40;12.80;;;14.10;99.90;;;;;;5061443;28;20439;-34
2022/04/28 09:29:39;;;;;;;19.17;12.50;;;14.30;99.90;;;;;;5070553;28;20592;-34
2022/04/28 09:32:18;;;;;;;18.77;12.03;;;14.50;99.90;;;;;;5070604;28;20416;-34
2022/04/28 09:34:47;;;;;;;18.63;12.70;;;14.70;99.90;;;;;;5070606;28;20427;-34
2022/04/28 09:37:21;;;;;;;17.40;13.63;;;14.90;99.90;;;;;;5070534;28;20442;-34
2022/04/28 09:42:39;;;;;;;17.80;12.80;;;15.20;99.50;;;;;;5057987;28;20443;-34
2022/04/28 09:45:07;;;;;;;14.77;11.23;;;15.30;98.70;;;;;;5067355;28;20511;-34
2022/04/28 09:47:34;;;;;;;15.83;13.50;;;15.40;98.60;;;;;;5068861;28;20422;-34
2022/04/28 09:50:00;;;;;;;15.80;12.30;;;15.40;98.00;;;;;;5068188;28;20484;-34
2022/04/28 09:52:26;;;;;;;15.37;12.80;;;15.50;98.00;;;;;;5070163;28;20423;-34
2022/04/28 09:54:53;;;;;;;14.50;12.70;;;15.60;98.10;;;;;;5070335;28;20263;-34
2022/04/28 09:57:20;;;;;;;14.40;12.20;;;15.70;96.30;;;;;;5063897;28;20604;-34
2022/04/28 09:59:47;;;;;;;15.23;13.30;;;15.80;97.30;;;;;;5066900;28;20491;-34
2022/04/28 10:02:18;;;;;;;18.90;12.93;;;15.90;97.10;;;;;;5069954;28;20466;-34
2022/04/28 10:04:45;;;;;;;16.67;13.10;;;15.70;95.30;;;;;;5068026;28;20992;-34
2022/04/28 10:07:14;;;;;;;18.80;13.37;;;15.90;96.30;;;;;;5070309;28;20431;-34
2022/04/28 10:09:45;;;;;;;18.00;12.97;;;16.00;96.90;;;;;;5069444;28;20423;-34
2022/04/28 10:12:14;;;;;;;15.70;13.87;;;16.10;97.00;;;;;;5062374;28;20432;-34
2022/04/28 10:14:42;;;;;;;15.80;13.00;;;16.20;96.20;;;;;;5066053;28;20431;-34
2022/04/28 10:17:14;;;;;;;16.63;13.37;;;16.40;96.40;;;;;;5069374;28;20476;-34
2022/04/28 10:19:47;;;;;;;17.40;14.20;;;16.50;94.20;;;;;;5072249;28;20463;-34
2022/04/28 10:22:16;;;;;;;16.47;12.60;;;16.30;92.90;;;;;;5068194;28;20420;-34
2022/04/28 10:33:15;;;;;;;15.67;12.57;;;16.60;94.90;;;;;;5061356;28;20419;-34
2022/04/28 10:35:45;;;;;;;17.13;12.83;;;16.50;93.70;;;;;;5069499;28;20427;-34
2022/04/28 10:38:30;;;;;;;18.73;14.47;;;16.40;94.50;;;;;;5069518;28;20983;-34
2022/04/28 10:41:01;;;;;;;17.20;14.23;;;16.20;92.90;;;;;;5068903;28;20482;-34
2022/04/28 10:43:33;;;;;;;19.57;14.07;;;16.30;95.30;;;;;;5059983;28;20435;-34
2022/04/28 10:46:28;;;;;;;16.33;14.63;;;16.20;93.50;;;;;;5069399;28;20415;-34
2022/04/28 10:48:59;;;;;;;19.87;12.97;;;16.30;95.10;;;;;;5057662;28;20427;-34
2022/04/28 10:51:27;;;;;;;14.77;13.20;;;16.50;94.10;;;;;;5068764;28;20919;-34
2022/04/28 10:54:11;;;;;;;18.17;14.23;;;16.70;93.70;;;;;;5069265;28;20768;-34
2022/04/28 10:56:40;;;;;;;16.37;12.50;;;16.80;93.40;;;;;;5068300;28;20824;-34
2022/04/28 10:59:37;;;;;;;17.53;13.33;;;16.90;94.10;;;;;;5060819;28;20471;-34
2022/04/28 11:02:26;;;;;;;15.97;12.33;;;17.00;93.20;;;;;;5064626;28;20418;-34
2022/04/28 11:05:22;;;;;;;19.30;13.87;;;17.10;93.20;;;;;;5062261;28;20437;-34
2022/04/28 11:07:47;;;;;;;13.93;11.23;;;17.10;92.20;;;;;;5068970;28;20433;-34
2022/04/28 11:10:13;;;;;;;15.50;11.77;;;17.20;92.20;;;;;;5068405;28;20427;-34
2022/04/28 11:12:44;;;;;;;17.70;12.00;;;17.30;92.30;;;;;;5061069;28;20583;-34
2022/04/28 11:15:13;;;;;;;17.63;12.90;;;17.30;90.70;;;;;;5067297;28;20435;-34
2022/04/28 11:17:44;;;;;;;12.93;11.43;;;17.30;92.70;;;;;;5068846;28;21113;-34
2022/04/28 11:20:15;;;;;;;16.63;12.40;;;17.30;91.60;;;;;;5068435;28;20812;-34
2022/04/28 11:22:46;;;;;;;13.10;11.80;;;17.30;91.50;;;;;;5068750;28;20781;-34
2022/04/28 11:25:14;;;;;;;14.50;11.73;;;17.20;92.40;;;;;;5084310;28;20419;-34
2022/04/28 11:27:41;;;;;;;13.77;12.13;;;17.30;92.90;;;;;;5060660;28;20427;-34
2022/04/28 11:30:10;;;;;;;14.80;12.80;;;17.40;92.80;;;;;;5065823;28;20830;-34
2022/04/28 11:32:57;;;;;;;14.80;12.50;;;17.50;93.30;;;;;;5062231;28;20415;-34
2022/04/28 11:35:34;;;;;;;15.37;12.07;;;17.70;92.40;;;;;;5068641;28;20754;-34
2022/04/28 11:38:00;;;;;;;13.70;12.30;;;17.70;91.90;;;;;;5068990;28;20760;-34
2022/04/28 11:40:26;;;;;;;12.80;10.50;;;17.70;91.90;;;;;;5063502;28;20457;-34
2022/04/28 11:42:57;;;;;;;17.27;11.70;;;17.80;92.00;;;;;;5056548;28;20455;-34
2022/04/28 11:45:23;;;;;;;12.97;10.23;;;17.80;92.60;;;;;;5066565;28;20453;-34
2022/04/28 11:47:49;;;;;;;14.00;11.17;;;17.90;92.20;;;;;;5068501;28;20929;-34
2022/04/28 11:50:35;;;;;;;11.80;10.60;;;18.10;91.50;;;;;;5066949;28;20185;-34
2022/04/28 11:53:12;;;;;;;11.77;10.60;;;18.20;87.50;;;;;;5068249;28;20461;-34
2022/04/28 11:55:40;;;;;;;13.20;11.70;;;18.20;90.10;;;;;;5068791;28;20434;-34
2022/04/28 11:58:07;;;;;;;16.07;11.40;;;18.30;90.60;;;;;;5061577;28;20489;-34
2022/04/28 12:00:41;;;;;;;13.97;11.10;;;18.20;84.70;;;;;;5060046;28;20468;-34
2022/04/28 12:03:08;;;;;;;12.70;11.40;;;18.10;83.60;;;;;;5068323;28;20430;-34
2022/04/28 12:05:34;;;;;;;12.70;11.03;;;18.10;86.10;;;;;;5066367;28;20431;-34
2022/04/28 12:08:00;;;;;;;11.90;10.37;;;18.10;84.60;;;;;;5068405;28;20783;-34
2022/04/28 12:15:59;;;;;;;12.23;10.83;;;18.10;82.80;;;;;;5073599;28;20423;-34
2022/04/28 12:21:23;;;;;;;15.50;11.40;;;18.30;82.60;;;;;;5071502;28;20415;-34
2022/04/28 12:23:55;;;;;;;15.67;12.13;;;18.40;88.40;;;;;;5070576;28;20458;-34
2022/04/28 12:26:21;;;;;;;16.10;13.20;;;18.40;86.50;;;;;;5071721;28;20446;-34
2022/04/28 12:28:47;;;;;;;13.20;11.40;;;18.10;81.20;;;;;;5060834;28;20474;-34
2022/04/28 12:31:28;;;;;;;16.23;12.40;;;17.90;85.00;;;;;;5071244;28;20423;-34
2022/04/28 12:33:54;;;;;;;13.47;11.13;;;17.90;88.90;;;;;;5069087;28;20780;-34
2022/04/28 12:36:20;;;;;;;12.23;10.93;;;17.90;87.20;;;;;;5071838;28;20888;-34
2022/04/28 12:38:52;;;;;;;15.17;11.00;;;18.00;82.70;;;;;;5071393;28;20464;-34
2022/04/28 12:41:24;;;;;;;12.10;10.90;;;17.90;79.90;;;;;;5069669;28;20420;-34
2022/04/28 12:43:52;;;;;;;17.47;12.50;;;17.90;80.10;;;;;;5049655;28;20436;-34
2022/04/28 12:46:21;;;;;;;14.80;12.30;;;17.80;80.40;;;;;;5069556;28;20510;-34
2022/04/28 12:48:55;;;;;;;16.00;12.13;;;18.00;85.50;;;;;;5054155;28;20434;-34
2022/04/28 12:51:28;;;;;;;14.13;11.47;;;18.20;87.80;;;;;;5069292;28;20486;-34
2022/04/28 12:54:06;;;;;;;13.27;11.27;;;18.30;86.70;;;;;;5071513;28;20427;-34
2022/04/28 12:56:33;;;;;;;12.13;10.70;;;18.30;88.20;;;;;;5071196;28;20506;-34
2022/04/28 12:59:02;;;;;;;17.90;12.30;;;18.30;86.00;;;;;;5059737;28;20459;-34
2022/04/28 13:01:29;;;;;;;14.63;12.10;;;18.30;85.20;;;;;;5069830;28;20453;-34
2022/04/28 13:03:56;;;;;;;13.60;12.17;;;18.40;86.20;;;;;;5069873;28;20484;-34
2022/04/28 13:06:27;;;;;;;13.33;11.13;;;18.50;85.80;;;;;;5069534;28;20480;-34
2022/04/28 13:08:55;;;;;;;15.13;12.30;;;18.50;88.10;;;;;;5086889;28;20511;-34
2022/04/28 13:11:24;;;;;;;19.20;12.50;;;18.60;86.50;;;;;;5070703;28;20454;-34
2022/04/28 13:13:52;;;;;;;15.10;11.97;;;18.60;87.30;;;;;;5064688;28;20450;-34